Terminal Aerodrome Forecast
Issued by NWS

Current Version | Previous Version | Text Only | Print | Product List | Glossary On
Versions: 1 2 3 4 5 6 7 8 9 10 11 12 13 14 15 16 17 18 19 20 21 22 23
000
FTUS45 KABQ 170543 RRA
TAFAEG
TAF
KAEG 170543Z 1706/1806 14006KT P6SM VCSH SCT015 OVC040
      TEMPO 1706/1709 -RA SCT005 BKN015
     FM170900 03007KT P6SM VCSH OVC035
     FM171200 VRB04KT P6SM OVC040
     FM171900 VRB04KT P6SM SCT040=

USA.gov is the U.S. government's official web portal to all federal, state and local government web resources and services.